createdAt,value
2023-05-14T00:00:02.020Z,64.88
2023-05-14T00:03:15.678Z,65.11
2023-05-14T00:06:13.994Z,65.44
2023-05-14T00:09:15.206Z,65.79
2023-05-14T00:12:30.889Z,65.53
2023-05-14T00:15:10.885Z,66.16
2023-05-14T00:18:14.895Z,66.10
2023-05-14T00:21:27.218Z,66.30
2023-05-14T00:24:39.734Z,66.47
2023-05-14T00:28:09.361Z,66.81
2023-05-14T00:31:45.182Z,66.69
2023-05-14T00:35:25.053Z,66.80
2023-05-14T00:39:01.227Z,66.49
2023-05-14T00:42:29.081Z,66.94
2023-05-14T00:45:17.560Z,67.29
2023-05-14T00:47:50.269Z,67.79
2023-05-14T00:51:13.685Z,67.85
2023-05-14T00:55:02.381Z,67.59
2023-05-14T00:59:12.124Z,67.33
2023-05-14T01:02:32.903Z,67.53
2023-05-14T01:06:46.868Z,66.93
2023-05-14T01:10:42.621Z,66.61
2023-05-14T01:14:33.883Z,66.81
2023-05-14T01:17:44.905Z,66.98
2023-05-14T01:21:17.573Z,67.13
2023-05-14T01:24:58.654Z,67.33
2023-05-14T01:28:13.657Z,67.79
2023-05-14T01:31:39.802Z,68.27
2023-05-14T01:34:53.711Z,67.55
2023-05-14T01:38:21.475Z,67.86
2023-05-14T01:41:44.173Z,68.84
2023-05-14T01:45:08.951Z,68.85
2023-05-14T01:48:34.261Z,69.18
2023-05-14T01:52:32.752Z,69.09
2023-05-14T01:55:45.740Z,69.13
2023-05-14T01:58:27.268Z,69.38
2023-05-14T02:01:26.549Z,69.83
2023-05-14T02:05:25.561Z,69.47
2023-05-14T02:09:25.206Z,69.22
2023-05-14T02:13:24.900Z,69.27
2023-05-14T02:17:14.895Z,69.39
2023-05-14T02:21:15.682Z,69.42
2023-05-14T02:25:25.402Z,69.44
2023-05-14T02:29:35.013Z,69.23
2023-05-14T02:33:45.022Z,69.52
2023-05-14T02:37:54.696Z,69.36
2023-05-14T02:41:44.253Z,69.92
2023-05-14T02:45:54.004Z,70.04
2023-05-14T02:49:56.606Z,70.13
2023-05-14T02:54:06.410Z,70.10
2023-05-14T02:58:16.186Z,70.06
2023-05-14T03:02:19.065Z,69.94
2023-05-14T03:06:29.377Z,70.09
2023-05-14T03:10:28.943Z,70.47
2023-05-14T03:14:28.868Z,70.69
2023-05-14T03:18:28.534Z,70.57
2023-05-14T03:22:28.552Z,70.69
2023-05-14T03:26:38.221Z,70.83
2023-05-14T03:30:48.419Z,70.88
2023-05-14T03:34:58.124Z,70.87
2023-05-14T03:38:40.371Z,70.88
2023-05-14T03:42:40.569Z,71.25
2023-05-14T03:46:50.398Z,71.21
2023-05-14T03:50:20.829Z,71.07
2023-05-14T03:53:26.600Z,70.33
2023-05-14T03:56:25.500Z,70.58
2023-05-14T03:59:36.077Z,70.40
2023-05-14T04:03:19.299Z,70.32
2023-05-14T04:07:29.293Z,70.56
2023-05-14T04:11:29.063Z,70.65
2023-05-14T04:15:39.199Z,71.26
2023-05-14T04:19:24.743Z,71.43
2023-05-14T04:23:24.677Z,71.41
2023-05-14T04:27:34.328Z,71.12
2023-05-14T04:31:17.182Z,71.17
2023-05-14T04:35:26.977Z,71.14
2023-05-14T04:39:09.607Z,70.57
2023-05-14T04:42:59.748Z,70.04
2023-05-14T04:46:49.406Z,69.83
2023-05-14T04:50:59.074Z,69.40
2023-05-14T04:55:01.849Z,69.05
2023-05-14T04:59:11.420Z,68.78
2023-05-14T05:03:13.992Z,68.62
2023-05-14T05:07:04.121Z,68.26
2023-05-14T05:11:04.998Z,68.03
2023-05-14T05:14:44.682Z,67.91
2023-05-14T05:18:36.904Z,67.51
2023-05-14T05:22:11.473Z,67.08
2023-05-14T05:26:11.587Z,66.74
2023-05-14T05:30:01.385Z,66.41
2023-05-14T05:33:51.382Z,66.13
2023-05-14T05:37:43.943Z,66.00
2023-05-14T05:41:13.760Z,65.70
2023-05-14T05:44:56.534Z,65.47
2023-05-14T05:48:34.783Z,65.08
2023-05-14T05:52:29.179Z,65.18
2023-05-14T05:55:51.661Z,64.67
2023-05-14T05:59:41.405Z,64.23
2023-05-14T06:03:31.317Z,64.22
2023-05-14T06:06:40.678Z,63.72
2023-05-14T06:09:33.455Z,63.60
2023-05-14T06:12:46.508Z,63.30
2023-05-14T06:15:27.462Z,63.00
2023-05-14T06:18:32.650Z,62.76
2023-05-14T06:21:33.278Z,62.39
2023-05-14T06:25:02.070Z,62.00
2023-05-14T06:28:15.408Z,61.80
2023-05-14T06:30:55.383Z,61.53
2023-05-14T06:33:58.551Z,61.27
2023-05-14T06:37:21.709Z,61.10
2023-05-14T06:41:21.586Z,60.83
2023-05-14T06:44:51.675Z,60.64
2023-05-14T06:48:33.677Z,60.48
2023-05-14T06:51:18.113Z,60.00
2023-05-14T06:54:22.127Z,59.76
2023-05-14T06:57:07.123Z,59.75
2023-05-14T07:00:11.182Z,59.65
2023-05-14T07:02:50.916Z,59.17
2023-05-14T07:05:42.973Z,58.49
2023-05-14T07:08:55.786Z,58.15
2023-05-14T07:11:33.228Z,57.65
2023-05-14T07:14:17.787Z,56.95
2023-05-14T07:16:50.884Z,56.64
2023-05-14T07:19:22.554Z,55.82
2023-05-14T07:21:55.517Z,55.26
2023-05-14T07:24:46.387Z,54.46
2023-05-14T07:27:28.806Z,53.86
2023-05-14T07:29:58.929Z,53.28
2023-05-14T07:32:32.824Z,52.31
2023-05-14T07:35:22.005Z,52.19
2023-05-14T07:38:23.769Z,51.97
2023-05-14T07:41:02.031Z,51.87
2023-05-14T07:43:34.881Z,51.23
2023-05-14T07:46:12.883Z,50.89
2023-05-14T07:48:52.703Z,50.53
2023-05-14T07:51:23.535Z,50.16
2023-05-14T07:53:52.951Z,49.51
2023-05-14T07:56:25.325Z,49.02
2023-05-14T07:58:59.017Z,48.68
2023-05-14T08:01:44.138Z,48.52
2023-05-14T08:04:26.220Z,48.04
2023-05-14T08:06:59.033Z,47.32
2023-05-14T08:09:31.291Z,47.27
2023-05-14T08:12:03.811Z,46.70
2023-05-14T08:14:34.956Z,46.60
2023-05-14T08:17:07.960Z,46.48
2023-05-14T08:19:40.396Z,45.92
2023-05-14T08:22:13.037Z,45.88
2023-05-14T08:24:43.705Z,45.80
2023-05-14T08:27:23.111Z,45.75
2023-05-14T08:29:53.968Z,45.33
2023-05-14T08:32:24.992Z,44.77
2023-05-14T08:34:54.578Z,44.85
2023-05-14T08:37:24.383Z,44.83
2023-05-14T08:39:56.053Z,44.46
2023-05-14T08:42:29.629Z,44.54
2023-05-14T08:45:03.759Z,44.69
2023-05-14T08:47:36.596Z,44.60
2023-05-14T08:50:09.110Z,44.07
2023-05-14T08:52:40.385Z,43.61
2023-05-14T08:55:14.215Z,42.89
2023-05-14T08:57:47.974Z,43.07
2023-05-14T09:00:20.756Z,42.88
2023-05-14T09:02:54.334Z,42.71
2023-05-14T09:05:26.026Z,41.93
2023-05-14T09:07:59.140Z,41.25
2023-05-14T09:10:40.803Z,41.54
2023-05-14T09:13:10.747Z,41.46
2023-05-14T09:15:41.647Z,41.07
2023-05-14T09:18:10.754Z,40.71
2023-05-14T09:20:42.127Z,40.44
2023-05-14T09:23:12.818Z,40.44
2023-05-14T09:25:45.996Z,40.38
2023-05-14T09:28:19.534Z,39.86
2023-05-14T09:30:52.596Z,39.65
2023-05-14T09:33:29.091Z,39.47
2023-05-14T09:36:02.252Z,39.49
2023-05-14T09:38:32.857Z,39.34
2023-05-14T09:41:02.083Z,39.40
2023-05-14T09:43:32.300Z,38.81
2023-05-14T09:46:01.945Z,38.72
2023-05-14T09:48:31.175Z,38.44
2023-05-14T09:51:00.137Z,38.37
2023-05-14T09:53:31.157Z,38.36
2023-05-14T09:56:02.711Z,38.47
2023-05-14T09:58:31.787Z,38.36
2023-05-14T10:01:02.263Z,38.14
2023-05-14T10:03:32.494Z,38.27
2023-05-14T10:06:07.245Z,38.02
2023-05-14T10:08:41.481Z,37.80
2023-05-14T10:11:25.828Z,37.66
2023-05-14T10:14:22.510Z,37.50
2023-05-14T10:16:53.457Z,37.37
2023-05-14T10:19:26.051Z,36.93
2023-05-14T10:22:06.063Z,36.91
2023-05-14T10:24:39.362Z,37.10
2023-05-14T10:27:10.009Z,37.12
2023-05-14T10:29:39.478Z,36.89
2023-05-14T10:32:10.917Z,36.43
2023-05-14T10:34:46.601Z,36.07
2023-05-14T10:37:18.514Z,35.73
2023-05-14T10:40:06.397Z,35.86
2023-05-14T10:42:44.455Z,36.03
2023-05-14T10:45:23.837Z,35.98
2023-05-14T10:47:52.806Z,35.39
2023-05-14T10:50:25.551Z,34.87
2023-05-14T10:52:57.964Z,35.10
2023-05-14T10:55:27.583Z,34.65
2023-05-14T10:58:01.858Z,34.38
2023-05-14T11:00:35.245Z,34.47
2023-05-14T11:03:08.433Z,34.47
2023-05-14T11:05:41.585Z,34.06
2023-05-14T11:08:13.102Z,33.88
2023-05-14T11:10:43.665Z,34.35
2023-05-14T11:13:14.890Z,34.91
2023-05-14T11:15:48.725Z,34.70
2023-05-14T11:18:32.260Z,34.28
2023-05-14T11:21:15.355Z,34.30
2023-05-14T11:23:47.849Z,34.41
2023-05-14T11:26:17.872Z,34.30
2023-05-14T11:28:47.884Z,34.04
2023-05-14T11:31:17.213Z,34.11
2023-05-14T11:33:46.490Z,34.10
2023-05-14T11:36:16.708Z,34.14
2023-05-14T11:38:49.500Z,33.89
2023-05-14T11:41:21.767Z,33.51
2023-05-14T11:43:51.145Z,33.43
2023-05-14T11:46:20.249Z,33.33
2023-05-14T11:48:49.353Z,33.07
2023-05-14T11:51:18.376Z,33.34
2023-05-14T11:53:47.658Z,33.42
2023-05-14T11:56:16.638Z,33.42
2023-05-14T11:58:49.394Z,33.21
2023-05-14T12:01:21.192Z,33.23
2023-05-14T12:03:51.268Z,33.09
2023-05-14T12:06:20.280Z,33.12
2023-05-14T12:08:49.902Z,32.81
2023-05-14T12:11:21.756Z,32.27
2023-05-14T12:13:50.745Z,32.82
2023-05-14T12:16:21.207Z,33.45
2023-05-14T12:18:50.082Z,33.41
2023-05-14T12:21:19.300Z,33.49
2023-05-14T12:23:48.660Z,34.07
2023-05-14T12:26:17.543Z,34.07
2023-05-14T12:28:48.611Z,33.99
2023-05-14T12:31:17.631Z,33.23
2023-05-14T12:33:47.920Z,33.34
2023-05-14T12:36:21.805Z,32.94
2023-05-14T12:38:57.492Z,33.06
2023-05-14T12:41:26.491Z,32.96
2023-05-14T12:43:56.791Z,32.99
2023-05-14T12:46:28.282Z,32.58
2023-05-14T12:48:57.956Z,32.62
2023-05-14T12:51:27.059Z,32.60
2023-05-14T12:53:56.040Z,32.63
2023-05-14T12:56:28.718Z,33.14
2023-05-14T12:58:57.610Z,32.98
2023-05-14T13:01:27.068Z,33.09
2023-05-14T13:03:59.928Z,33.21
2023-05-14T13:06:29.007Z,33.13
2023-05-14T13:09:00.811Z,33.39
2023-05-14T13:11:31.994Z,33.46
2023-05-14T13:14:02.161Z,33.37
2023-05-14T13:16:31.575Z,33.22
2023-05-14T13:19:00.482Z,33.18
2023-05-14T13:21:32.635Z,33.48
2023-05-14T13:24:01.770Z,33.70
2023-05-14T13:26:30.585Z,33.35
2023-05-14T13:28:59.462Z,33.04
2023-05-14T13:31:29.313Z,32.72
2023-05-14T13:33:59.700Z,32.61
2023-05-14T13:36:28.650Z,32.85
2023-05-14T13:38:57.639Z,33.06
2023-05-14T13:41:26.770Z,33.26
2023-05-14T13:43:56.001Z,33.09
2023-05-14T13:46:25.139Z,32.71
2023-05-14T13:48:53.961Z,32.45
2023-05-14T13:51:24.108Z,32.99
2023-05-14T13:56:26.825Z,33.32
2023-05-14T13:58:56.395Z,33.22
2023-05-14T14:01:26.257Z,33.07
2023-05-14T14:03:55.413Z,32.89
2023-05-14T14:06:24.093Z,33.70
2023-05-14T14:08:53.600Z,34.06
2023-05-14T14:11:22.589Z,33.76
2023-05-14T14:13:51.255Z,34.06
2023-05-14T14:16:20.184Z,34.21
2023-05-14T14:18:49.837Z,34.73
2023-05-14T14:21:21.104Z,35.09
2023-05-14T14:23:50.228Z,35.24
2023-05-14T14:26:19.402Z,35.11
2023-05-14T14:28:48.312Z,35.04
2023-05-14T14:31:17.966Z,35.34
2023-05-14T14:33:46.899Z,35.50
2023-05-14T14:36:16.292Z,36.09
2023-05-14T14:38:45.101Z,36.38
2023-05-14T14:41:13.808Z,36.31
2023-05-14T14:43:44.142Z,36.39
2023-05-14T14:46:14.359Z,36.61
2023-05-14T14:48:44.455Z,36.84
2023-05-14T14:51:13.445Z,36.93
2023-05-14T14:53:42.332Z,37.28
2023-05-14T14:56:11.739Z,37.60
2023-05-14T14:58:41.135Z,38.04
2023-05-14T15:01:10.065Z,38.13
2023-05-14T15:03:39.502Z,38.25
2023-05-14T15:06:09.785Z,38.57
2023-05-14T15:08:38.852Z,39.10
2023-05-14T15:11:08.975Z,39.22
2023-05-14T15:13:42.257Z,39.37
2023-05-14T15:16:15.237Z,39.39
2023-05-14T15:18:46.952Z,39.35
2023-05-14T15:21:16.442Z,39.52
2023-05-14T15:23:46.029Z,39.54
2023-05-14T15:26:16.580Z,39.73
2023-05-14T15:28:46.701Z,39.62
2023-05-14T15:31:16.731Z,39.73
2023-05-14T15:33:45.979Z,39.79
2023-05-14T15:36:15.208Z,39.82
2023-05-14T15:38:44.890Z,39.98
2023-05-14T15:41:20.750Z,40.21
2023-05-14T15:43:52.235Z,40.55
2023-05-14T15:46:23.693Z,41.08
2023-05-14T15:48:55.534Z,41.40
2023-05-14T15:51:28.288Z,41.14
2023-05-14T15:53:58.847Z,41.20
2023-05-14T15:56:28.134Z,41.37
2023-05-14T15:58:59.286Z,41.42
2023-05-14T16:01:31.162Z,41.61
2023-05-14T16:04:01.798Z,41.86
2023-05-14T16:06:34.250Z,42.06
2023-05-14T16:09:05.628Z,42.10
2023-05-14T16:11:36.121Z,42.30
2023-05-14T16:14:08.373Z,42.52
2023-05-14T16:16:37.728Z,42.95
2023-05-14T16:19:07.545Z,43.13
2023-05-14T16:21:39.214Z,43.44
2023-05-14T16:24:09.487Z,43.60
2023-05-14T16:26:39.588Z,43.86
2023-05-14T16:29:11.873Z,44.06
2023-05-14T16:31:41.213Z,44.28
2023-05-14T16:34:10.572Z,44.42
2023-05-14T16:36:45.850Z,44.41
2023-05-14T16:39:17.984Z,44.56
2023-05-14T16:41:47.061Z,44.83
2023-05-14T16:44:28.257Z,45.09
2023-05-14T16:46:57.964Z,45.42
2023-05-14T16:49:34.649Z,45.37
2023-05-14T16:52:03.735Z,45.71
2023-05-14T16:54:42.760Z,46.14
2023-05-14T16:57:12.661Z,45.98
2023-05-14T16:59:48.093Z,46.19
2023-05-14T17:02:31.541Z,46.24
2023-05-14T17:05:22.083Z,46.54
2023-05-14T17:07:51.921Z,46.61
2023-05-14T17:10:30.895Z,47.21
2023-05-14T17:13:01.368Z,47.38
2023-05-14T17:15:57.679Z,47.28
2023-05-14T17:18:28.341Z,47.51
2023-05-14T17:20:58.688Z,47.90
2023-05-14T17:23:39.899Z,47.97
2023-05-14T17:26:09.882Z,48.04
2023-05-14T17:28:52.875Z,48.41
2023-05-14T17:31:31.848Z,48.87
2023-05-14T17:34:13.369Z,49.76
2023-05-14T17:37:04.746Z,49.78
2023-05-14T17:41:14.037Z,49.67
2023-05-14T17:44:47.028Z,49.78
2023-05-14T17:52:34.391Z,50.76
2023-05-14T17:57:16.673Z,51.24
2023-05-14T18:01:41.369Z,51.20
2023-05-14T18:06:43.205Z,51.26
2023-05-14T18:11:05.837Z,51.43
2023-05-14T18:15:44.047Z,52.01
2023-05-14T18:19:01.169Z,52.58
2023-05-14T18:21:31.326Z,53.23
2023-05-14T18:24:04.898Z,54.38
2023-05-14T18:26:35.090Z,54.36
2023-05-14T18:29:10.253Z,55.13
2023-05-14T18:31:41.189Z,55.58
2023-05-14T18:34:25.555Z,56.37
2023-05-14T18:36:59.777Z,56.92
2023-05-14T18:39:33.474Z,57.42
2023-05-14T18:42:11.178Z,58.04
2023-05-14T18:44:45.598Z,59.04
2023-05-14T18:47:19.810Z,59.63
2023-05-14T18:49:57.615Z,59.89
2023-05-14T18:52:42.806Z,60.28
2023-05-14T18:55:20.213Z,60.35
2023-05-14T18:58:18.295Z,60.18
2023-05-14T19:01:01.286Z,60.42
2023-05-14T19:03:54.700Z,60.48
2023-05-14T19:06:25.558Z,60.87
2023-05-14T19:09:24.489Z,61.22
2023-05-14T19:11:59.176Z,61.71
2023-05-14T19:14:35.160Z,61.98
2023-05-14T19:17:34.079Z,62.48
2023-05-14T19:20:29.656Z,62.78
2023-05-14T19:23:04.983Z,62.44
2023-05-14T19:26:26.347Z,62.99
2023-05-14T19:29:26.234Z,62.59
2023-05-14T19:32:00.923Z,63.32
2023-05-14T19:34:42.544Z,63.56
2023-05-14T19:37:59.395Z,63.92
2023-05-14T19:41:23.545Z,64.07
2023-05-14T19:44:48.183Z,64.33
2023-05-14T19:47:24.851Z,64.99
2023-05-14T19:51:08.532Z,65.68
2023-05-14T19:54:16.255Z,65.82
2023-05-14T19:57:16.303Z,66.41
2023-05-14T20:00:55.812Z,66.25
2023-05-14T20:03:32.668Z,66.55
2023-05-14T20:06:14.788Z,67.39
2023-05-14T20:08:46.150Z,67.46
2023-05-14T20:11:18.522Z,67.33
2023-05-14T20:13:49.164Z,67.06
2023-05-14T20:16:21.247Z,67.15
2023-05-14T20:19:18.650Z,67.61
2023-05-14T20:21:55.182Z,67.41
2023-05-14T20:24:43.398Z,68.20
2023-05-14T20:27:19.343Z,67.58
2023-05-14T20:29:51.572Z,67.64
2023-05-14T20:32:25.376Z,67.57
2023-05-14T20:35:10.007Z,67.47
2023-05-14T20:38:15.519Z,68.44
2023-05-14T20:42:13.521Z,68.03
2023-05-14T20:45:21.857Z,68.21
2023-05-14T20:48:23.105Z,67.48
2023-05-14T20:51:26.395Z,67.54
2023-05-14T20:55:07.388Z,68.61
2023-05-14T21:02:38.951Z,68.73
2023-05-14T21:06:59.229Z,68.87
2023-05-14T21:10:38.712Z,69.45
2023-05-14T21:13:57.344Z,70.25
2023-05-14T21:17:56.738Z,70.15
2023-05-14T21:22:11.766Z,70.04
2023-05-14T21:26:03.596Z,70.43
2023-05-14T21:30:42.723Z,70.13
2023-05-14T21:34:02.761Z,70.99
2023-05-14T21:38:09.627Z,70.69
2023-05-14T21:41:14.318Z,70.09
2023-05-14T21:43:45.518Z,70.90
2023-05-14T21:46:16.455Z,71.05
2023-05-14T21:48:50.609Z,71.48
2023-05-14T21:51:21.811Z,72.04
2023-05-14T21:53:52.698Z,72.77
2023-05-14T21:56:24.297Z,73.02
2023-05-14T21:58:55.789Z,73.66
2023-05-14T22:01:35.638Z,74.14
2023-05-14T22:06:42.305Z,74.66
2023-05-14T22:09:14.153Z,75.60
2023-05-14T22:11:48.178Z,76.04
2023-05-14T22:14:16.955Z,76.11
2023-05-14T22:16:48.562Z,76.43
2023-05-14T22:19:17.442Z,76.60
2023-05-14T22:21:51.104Z,76.50
2023-05-14T22:24:22.976Z,76.23
2023-05-14T22:26:58.708Z,76.89
2023-05-14T22:29:27.338Z,76.94
2023-05-14T22:31:58.699Z,77.12
2023-05-14T22:34:27.548Z,76.78
2023-05-14T22:37:03.085Z,76.33
2023-05-14T22:39:37.513Z,76.06
2023-05-14T22:42:06.502Z,76.39
2023-05-14T22:44:41.220Z,76.64
2023-05-14T22:47:21.084Z,76.98
2023-05-14T22:49:52.943Z,76.42
2023-05-14T22:52:25.814Z,76.53
2023-05-14T22:54:59.922Z,77.07
2023-05-14T22:57:36.710Z,76.92
2023-05-14T23:00:19.330Z,76.62
2023-05-14T23:02:50.990Z,76.42
2023-05-14T23:05:25.907Z,78.01
2023-05-14T23:08:01.365Z,78.19
2023-05-14T23:10:30.125Z,77.95
2023-05-14T23:13:01.811Z,77.20
2023-05-14T23:15:42.638Z,78.27
2023-05-14T23:18:12.114Z,78.88
2023-05-14T23:20:44.030Z,79.30
2023-05-14T23:23:20.088Z,78.79
2023-05-14T23:25:50.319Z,78.64
2023-05-14T23:28:21.664Z,79.42
2023-05-14T23:30:52.912Z,79.30
2023-05-14T23:33:31.119Z,79.96
2023-05-14T23:36:02.561Z,79.49
2023-05-14T23:38:34.132Z,80.20
2023-05-14T23:41:08.560Z,80.28
2023-05-14T23:43:43.768Z,80.10
2023-05-14T23:46:14.952Z,79.99
2023-05-14T23:48:49.041Z,79.70
2023-05-14T23:51:30.940Z,79.21
2023-05-14T23:54:22.053Z,78.92
2023-05-14T23:56:55.228Z,78.41
2023-05-14T23:59:40.276Z,78.52
